Arkona, Germany

6:45 PM CET on February 07, 2016 (GMT +0100)
Ostsee Wetterstation Klaarkiming | | Change Station
CLOSE
Current Station
Personal Weather Station
Location: Breege, MECKLENBURG-VORPOMMERN
Elevation: 0 ft
Nearby Weather Stations

Elev 0 ft 54.62 °N, 13.37 °E | Updated 13 minutes ago

Mostly Cloudy
Mostly Cloudy
46.2 °F
Feels Like 44 °F
N
5.0
Wind Variable Wind from East
Gusts 12.0 mph

Today
High -- | Low -- °F
--% Chance of Precip.
Yesterday
High -- | Low -- °F
Precip. -- in
Pressure 29.53 in
Visibility 6.2 miles
Clouds Mostly Cloudy 8300 ft
Windchill 44 °F
Dew Point 39 °F
Humidity 76%
Rainfall 0.00 in
Snow Depth Not available.
7:45 AM 4:55 PM
Waning Crescent, 1% visible
METAR EKRN 071720Z AUTO 19015KT 9999NDV BKN083/// 07/03 Q1000
Pressure 29.53 in
Visibility 6.2 miles
Clouds Mostly Cloudy 8300 ft
Windchill 44 °F
Dew Point 39 °F
Humidity 76%
Rainfall 0.00 in
Snow Depth Not available.
7:45 AM 4:55 PM
Waning Crescent, 1% visible
METAR EKRN 071720Z AUTO 19015KT 9999NDV BKN083/// 07/03 Q1000

10-Day Weather Forecast

Almanac

Astronomy

Feb. 07, 2016 Rise Set
Actual Time
Civil Twilight
Nautical Twilight
Astronomical Twilight
Moon
Length of Visible Light
Length of Day
Tomorrow will be .
, % of the Moon is Illuminated

Today's Extremes

Country Highs Country Lows

Community

WunderPhotos

Upload Photos

1,891,248 photos uploaded!

WunderBlog® & News

Nearby

Air Quality

  Air Quality AQ Index Pollutant
Not available.

Snow Depth

Station Depth Elevation

Earthquake Activity

City Distance Mag. Time & Date
Minimum magnitude displayed is 2.5.

Coastal Water Temperatures

Place Temperature

Stations

Nearby Weather Stations

Station Location Temp. Windchill Dew Point Humidity Wind Precip. Elev Updated Type